NCAR-RAP Real-Time Weather Data

Output produced by METARs form (23 February 2020  02:39 UTC)
found at http://weather.rap.ucar.edu/surface/
 
KPIT 230151Z 20005KT 10SM CLR 03/M13 A3022 RMK AO2 SLP253 T00281128
KPIT 230051Z 19005KT 10SM CLR 03/M13 A3024 RMK AO2 SLP259 T00331128
KPIT 222351Z 22006KT 10SM CLR 05/M13 A3024 RMK AO2 SLP260 T00501128 10078 20050 52001
KPIT 222251Z 23006KT 10SM CLR 06/M13 A3024 RMK AO2 SLP259 T00611128
KPIT 222151Z 23009KT 10SM CLR 07/M13 A3024 RMK AO2 SLP257 T00721133
KPIT 222051Z 22012G19KT 10SM CLR 07/M14 A3023 RMK AO2 SLP257 T00721139 56020
KPIT 221951Z 23008KT 10SM CLR 07/M14 A3025 RMK AO2 SLP261 T00671139
KPIT 221851Z 24012G20KT 10SM CLR 06/M14 A3026 RMK AO2 SLP267 T00611139
KPIT 221751Z 25012G19KT 10SM CLR 05/M13 A3030 RMK AO2 SLP279 T00501133 10050 21056 58021
KPIT 221651Z 23010KT 10SM CLR 03/M13 A3033 RMK AO2 SLP291 T00281128
KPIT 221551Z 22011KT 10SM CLR 01/M13 A3034 RMK AO2 SLP297 T00111128
KPIT 221451Z 23009KT 10SM FEW250 M01/M13 A3036 RMK AO2 SLP302 T10061128 58001
KPIT 221351Z 23010KT 10SM FEW250 M03/M12 A3036 RMK AO2 SLP305 T10281122
KPIT 221251Z 21007KT 10SM FEW250 M04/M13 A3036 RMK AO2 SLP304 T10441128
KPIT 221151Z 21006KT 10SM FEW250 M05/M13 A3036 RMK AO2 SLP305 T10501128 11039 21050 52006
KPIT 221051Z 20004KT 10SM CLR M05/M13 A3036 RMK AO2 SLP302 T10501128
KPIT 220951Z 23005KT 10SM CLR M04/M13 A3035 RMK AO2 SLP299 T10441128
KPIT 220851Z 24004KT 10SM CLR M04/M13 A3034 RMK AO2 SLP297 T10441128 55012
KPIT 220751Z 22007KT 10SM CLR M04/M13 A3033 RMK AO2 SLP295 T10391133
KPIT 220651Z 21009KT 10SM CLR M04/M13 A3035 RMK AO2 SLP301 T10391128
KPIT 220551Z 22005KT 10SM CLR M04/M13 A3038 RMK AO2 SLP310 T10391128 11011 21039 56013
KPIT 220451Z 24005KT 10SM CLR M03/M13 A3038 RMK AO2 SLP312 T10331133 400061117
KPIT 220351Z 23008KT 10SM CLR M03/M13 A3040 RMK AO2 SLP317 T10281133
KPIT 220251Z 22006KT 10SM CLR M02/M13 A3042 RMK AO2 SLP325 T10221133 56007
KPIT 220151Z 22004KT 10SM CLR M02/M14 A3042 RMK AO2 SLP326 T10221139
KPIT 220051Z 22006KT 10SM CLR M02/M14 A3042 RMK AO2 SLP328 T10171139
KPIT 212351Z 23006KT 10SM CLR M01/M14 A3044 RMK AO2 SLP334 T10111144 10006 21022 55006
KPIT 212251Z 24007KT 10SM CLR 00/M15 A3043 RMK AO2 SLP332 T00001150
KPIT 212151Z 23011KT 10SM CLR 01/M14 A3044 RMK AO2 SLP335 T00061144
KPIT 212051Z 26009KT 10SM CLR 01/M14 A3045 RMK AO2 SLP339 T00061144 56022
KPIT 211951Z 26011KT 10SM CLR 00/M14 A3046 RMK AO2 SLP342 T00001144
KPIT 211851Z 29008KT 10SM CLR 00/M13 A3049 RMK AO2 SLP351 T00001133
KPIT 211751Z 25007KT 200V310 10SM CLR M02/M13 A3052 RMK AO2 SLP363 T10171128 11017 21117 58011
KPIT 211651Z VRB03KT 10SM CLR M03/M13 A3055 RMK AO2 SLP372 T10331128
KPIT 211551Z 30004KT 10SM FEW035 M04/M13 A3055 RMK AO2 SLP372 T10441128
KPIT 211451Z 29005KT 10SM FEW032 M06/M12 A3056 RMK AO2 SLP376 T10611122 50010
KPIT 211351Z 28007KT 10SM CLR M08/M13 A3056 RMK AO2 SLP378 T10781128
KPIT 211251Z 28004KT 10SM CLR M11/M13 A3054 RMK AO2 SLP372 T11061133
KPIT 211151Z 00000KT 10SM FEW035 M11/M14 A3052 RMK AO2 SLP366 T11111144 11094 21117 53008
KPIT 211051Z 00000KT 10SM CLR M11/M14 A3051 RMK AO2 SLP361 T11111144
KPIT 210951Z 27004KT 10SM CLR M11/M14 A3050 RMK AO2 SLP357 T11111144
KPIT 210851Z 28006KT 10SM CLR M11/M14 A3050 RMK AO2 SLP357 T11111144 57006
KPIT 210751Z 26003KT 10SM CLR M11/M14 A3051 RMK AO2 SLP359 T11061139
KPIT 210651Z 29003KT 10SM CLR M10/M14 A3051 RMK AO2 SLP359 T11001139
KPIT 210551Z 32005KT 10SM CLR M09/M14 A3052 RMK AO2 SLP361 T10941139 11050 21094 50000
KPIT 210451Z 31005KT 10SM FEW030 M09/M13 A3052 RMK AO2 SLP362 T10891133 410221089
KPIT 210351Z 35009KT 10SM FEW030 M08/M13 A3052 RMK AO2 SLP362 T10781133
KPIT 210251Z 35009KT 10SM FEW030 M07/M13 A3052 RMK AO2 SLP360 T10721133 53017